sensor_id;sensor_type;location;lat;lon;timestamp;P1;durP1;ratioP1;P2;durP2;ratioP2
36441;SDS011;22470;50.824;16.284;2022-07-21T00:01:38;13.27;;;5.85;;
36441;SDS011;22470;50.824;16.284;2022-07-21T00:04:06;15.68;;;5.30;;
36441;SDS011;22470;50.824;16.284;2022-07-21T00:06:33;13.25;;;6.13;;
36441;SDS011;22470;50.824;16.284;2022-07-21T00:09:00;12.52;;;5.70;;
36441;SDS011;22470;50.824;16.284;2022-07-21T00:11:27;11.38;;;5.68;;
36441;SDS011;22470;50.824;16.284;2022-07-21T00:13:55;12.95;;;5.97;;
36441;SDS011;22470;50.824;16.284;2022-07-21T00:16:22;14.15;;;5.30;;
36441;SDS011;22470;50.824;16.284;2022-07-21T00:18:50;16.40;;;5.75;;
36441;SDS011;22470;50.824;16.284;2022-07-21T00:21:18;11.75;;;5.55;;
36441;SDS011;22470;50.824;16.284;2022-07-21T00:23:45;10.82;;;5.60;;
36441;SDS011;22470;50.824;16.284;2022-07-21T00:26:12;18.67;;;6.20;;
36441;SDS011;22470;50.824;16.284;2022-07-21T00:28:40;11.93;;;5.68;;
36441;SDS011;22470;50.824;16.284;2022-07-21T00:31:07;10.13;;;5.13;;
36441;SDS011;22470;50.824;16.284;2022-07-21T00:33:35;11.82;;;5.47;;
36441;SDS011;22470;50.824;16.284;2022-07-21T00:36:02;14.95;;;6.10;;
36441;SDS011;22470;50.824;16.284;2022-07-21T00:38:30;11.23;;;5.15;;
36441;SDS011;22470;50.824;16.284;2022-07-21T00:40:57;13.20;;;5.40;;
36441;SDS011;22470;50.824;16.284;2022-07-21T00:43:24;10.55;;;5.40;;
36441;SDS011;22470;50.824;16.284;2022-07-21T00:45:52;12.10;;;5.40;;
36441;SDS011;22470;50.824;16.284;2022-07-21T00:48:20;15.05;;;5.65;;
36441;SDS011;22470;50.824;16.284;2022-07-21T00:50:48;10.82;;;5.45;;
36441;SDS011;22470;50.824;16.284;2022-07-21T00:53:16;13.57;;;5.68;;
36441;SDS011;22470;50.824;16.284;2022-07-21T00:55:44;11.70;;;4.80;;
36441;SDS011;22470;50.824;16.284;2022-07-21T00:58:12;9.82;;;5.32;;
36441;SDS011;22470;50.824;16.284;2022-07-21T01:00:40;13.38;;;5.50;;
36441;SDS011;22470;50.824;16.284;2022-07-21T01:03:08;12.27;;;5.47;;
36441;SDS011;22470;50.824;16.284;2022-07-21T01:05:35;9.52;;;5.00;;
36441;SDS011;22470;50.824;16.284;2022-07-21T01:08:02;13.18;;;4.80;;
36441;SDS011;22470;50.824;16.284;2022-07-21T01:10:30;13.68;;;5.40;;
36441;SDS011;22470;50.824;16.284;2022-07-21T01:12:59;10.98;;;5.40;;
36441;SDS011;22470;50.824;16.284;2022-07-21T01:15:27;11.57;;;5.22;;
36441;SDS011;22470;50.824;16.284;2022-07-21T01:17:55;14.13;;;5.30;;
36441;SDS011;22470;50.824;16.284;2022-07-21T01:20:23;13.43;;;5.32;;
36441;SDS011;22470;50.824;16.284;2022-07-21T01:22:52;11.43;;;6.25;;
36441;SDS011;22470;50.824;16.284;2022-07-21T01:25:22;11.82;;;5.32;;
36441;SDS011;22470;50.824;16.284;2022-07-21T01:27:49;14.88;;;6.15;;
36441;SDS011;22470;50.824;16.284;2022-07-21T01:30:16;14.52;;;6.30;;
36441;SDS011;22470;50.824;16.284;2022-07-21T01:32:44;11.98;;;5.97;;
36441;SDS011;22470;50.824;16.284;2022-07-21T01:35:13;12.57;;;6.15;;
36441;SDS011;22470;50.824;16.284;2022-07-21T01:37:43;13.60;;;6.18;;
36441;SDS011;22470;50.824;16.284;2022-07-21T01:40:12;10.75;;;6.00;;
36441;SDS011;22470;50.824;16.284;2022-07-21T01:42:41;14.10;;;6.25;;
36441;SDS011;22470;50.824;16.284;2022-07-21T01:45:09;12.35;;;5.90;;
36441;SDS011;22470;50.824;16.284;2022-07-21T01:47:37;13.68;;;6.15;;
36441;SDS011;22470;50.824;16.284;2022-07-21T01:50:04;14.43;;;6.07;;
36441;SDS011;22470;50.824;16.284;2022-07-21T01:52:32;14.15;;;6.47;;
36441;SDS011;22470;50.824;16.284;2022-07-21T01:54:59;13.07;;;6.18;;
36441;SDS011;22470;50.824;16.284;2022-07-21T01:57:27;14.25;;;6.15;;
36441;SDS011;22470;50.824;16.284;2022-07-21T01:59:54;12.52;;;6.32;;
36441;SDS011;22470;50.824;16.284;2022-07-21T02:02:21;12.40;;;5.38;;
36441;SDS011;22470;50.824;16.284;2022-07-21T02:04:48;11.00;;;5.68;;
36441;SDS011;22470;50.824;16.284;2022-07-21T02:07:16;11.88;;;5.55;;
36441;SDS011;22470;50.824;16.284;2022-07-21T02:09:44;14.10;;;5.45;;
36441;SDS011;22470;50.824;16.284;2022-07-21T02:12:11;12.57;;;5.35;;
36441;SDS011;22470;50.824;16.284;2022-07-21T02:14:39;11.73;;;5.40;;
36441;SDS011;22470;50.824;16.284;2022-07-21T02:17:06;12.43;;;5.78;;
36441;SDS011;22470;50.824;16.284;2022-07-21T02:19:34;14.85;;;6.32;;
36441;SDS011;22470;50.824;16.284;2022-07-21T02:22:01;15.80;;;6.05;;
36441;SDS011;22470;50.824;16.284;2022-07-21T02:24:28;12.25;;;5.75;;
36441;SDS011;22470;50.824;16.284;2022-07-21T02:26:55;13.60;;;6.40;;
36441;SDS011;22470;50.824;16.284;2022-07-21T02:29:22;16.38;;;7.57;;
36441;SDS011;22470;50.824;16.284;2022-07-21T02:31:50;12.20;;;5.93;;
36441;SDS011;22470;50.824;16.284;2022-07-21T02:34:17;13.88;;;6.38;;
36441;SDS011;22470;50.824;16.284;2022-07-21T02:36:44;14.35;;;6.50;;
36441;SDS011;22470;50.824;16.284;2022-07-21T02:39:11;11.48;;;5.95;;
36441;SDS011;22470;50.824;16.284;2022-07-21T02:41:39;14.35;;;6.38;;
36441;SDS011;22470;50.824;16.284;2022-07-21T02:44:06;12.55;;;6.38;;
36441;SDS011;22470;50.824;16.284;2022-07-21T02:46:34;12.68;;;6.22;;
36441;SDS011;22470;50.824;16.284;2022-07-21T02:49:01;15.75;;;6.20;;
36441;SDS011;22470;50.824;16.284;2022-07-21T02:51:28;16.13;;;6.78;;
36441;SDS011;22470;50.824;16.284;2022-07-21T02:53:56;13.30;;;6.25;;
36441;SDS011;22470;50.824;16.284;2022-07-21T02:56:23;12.93;;;5.70;;
36441;SDS011;22470;50.824;16.284;2022-07-21T02:58:50;12.43;;;6.35;;
36441;SDS011;22470;50.824;16.284;2022-07-21T03:01:18;17.50;;;7.25;;
36441;SDS011;22470;50.824;16.284;2022-07-21T03:03:45;14.15;;;6.80;;
36441;SDS011;22470;50.824;16.284;2022-07-21T03:06:13;12.95;;;6.55;;
36441;SDS011;22470;50.824;16.284;2022-07-21T03:08:40;14.95;;;7.15;;
36441;SDS011;22470;50.824;16.284;2022-07-21T03:11:07;13.93;;;5.97;;
36441;SDS011;22470;50.824;16.284;2022-07-21T03:13:35;11.88;;;6.10;;
36441;SDS011;22470;50.824;16.284;2022-07-21T03:16:02;12.73;;;6.28;;
36441;SDS011;22470;50.824;16.284;2022-07-21T03:18:30;13.23;;;5.53;;
36441;SDS011;22470;50.824;16.284;2022-07-21T03:20:57;15.15;;;6.40;;
36441;SDS011;22470;50.824;16.284;2022-07-21T03:23:24;12.60;;;7.13;;
36441;SDS011;22470;50.824;16.284;2022-07-21T03:25:52;12.02;;;6.55;;
36441;SDS011;22470;50.824;16.284;2022-07-21T03:28:19;13.27;;;6.85;;
36441;SDS011;22470;50.824;16.284;2022-07-21T03:30:46;13.63;;;7.35;;
36441;SDS011;22470;50.824;16.284;2022-07-21T03:33:13;13.85;;;6.28;;
36441;SDS011;22470;50.824;16.284;2022-07-21T03:35:40;9.63;;;5.70;;
36441;SDS011;22470;50.824;16.284;2022-07-21T03:38:08;13.10;;;6.63;;
36441;SDS011;22470;50.824;16.284;2022-07-21T03:40:36;14.25;;;6.53;;
36441;SDS011;22470;50.824;16.284;2022-07-21T03:43:05;13.52;;;6.88;;
36441;SDS011;22470;50.824;16.284;2022-07-21T03:45:34;15.00;;;7.13;;
36441;SDS011;22470;50.824;16.284;2022-07-21T03:48:03;14.85;;;6.53;;
36441;SDS011;22470;50.824;16.284;2022-07-21T03:50:31;23.25;;;7.13;;
36441;SDS011;22470;50.824;16.284;2022-07-21T03:52:59;19.08;;;7.40;;
36441;SDS011;22470;50.824;16.284;2022-07-21T03:55:27;14.23;;;7.72;;
36441;SDS011;22470;50.824;16.284;2022-07-21T03:57:58;18.25;;;8.43;;
36441;SDS011;22470;50.824;16.284;2022-07-21T04:00:29;19.13;;;8.60;;
36441;SDS011;22470;50.824;16.284;2022-07-21T04:02:59;21.00;;;8.35;;
36441;SDS011;22470;50.824;16.284;2022-07-21T04:05:27;19.88;;;9.07;;
36441;SDS011;22470;50.824;16.284;2022-07-21T04:07:55;21.80;;;8.55;;
36441;SDS011;22470;50.824;16.284;2022-07-21T04:10:24;18.83;;;8.98;;
36441;SDS011;22470;50.824;16.284;2022-07-21T04:12:52;19.20;;;8.43;;
36441;SDS011;22470;50.824;16.284;2022-07-21T04:15:21;20.10;;;8.65;;
36441;SDS011;22470;50.824;16.284;2022-07-21T04:17:50;18.25;;;8.00;;
36441;SDS011;22470;50.824;16.284;2022-07-21T04:20:17;17.50;;;7.85;;
36441;SDS011;22470;50.824;16.284;2022-07-21T04:22:46;25.17;;;9.73;;
36441;SDS011;22470;50.824;16.284;2022-07-21T04:25:14;22.27;;;9.05;;
36441;SDS011;22470;50.824;16.284;2022-07-21T04:27:42;26.77;;;9.00;;
36441;SDS011;22470;50.824;16.284;2022-07-21T04:30:12;23.48;;;9.25;;
36441;SDS011;22470;50.824;16.284;2022-07-21T04:32:41;21.40;;;8.60;;
36441;SDS011;22470;50.824;16.284;2022-07-21T04:35:09;20.70;;;8.07;;
36441;SDS011;22470;50.824;16.284;2022-07-21T04:37:37;21.60;;;8.77;;
36441;SDS011;22470;50.824;16.284;2022-07-21T04:40:06;18.65;;;8.23;;
36441;SDS011;22470;50.824;16.284;2022-07-21T04:42:35;25.83;;;9.27;;
36441;SDS011;22470;50.824;16.284;2022-07-21T04:45:03;20.17;;;8.00;;
36441;SDS011;22470;50.824;16.284;2022-07-21T04:47:45;19.80;;;7.97;;
36441;SDS011;22470;50.824;16.284;2022-07-21T04:50:18;19.23;;;8.43;;
36441;SDS011;22470;50.824;16.284;2022-07-21T04:52:46;21.50;;;8.50;;
36441;SDS011;22470;50.824;16.284;2022-07-21T04:55:13;17.10;;;8.60;;
36441;SDS011;22470;50.824;16.284;2022-07-21T04:57:42;17.35;;;8.57;;
36441;SDS011;22470;50.824;16.284;2022-07-21T05:00:12;19.98;;;9.25;;
36441;SDS011;22470;50.824;16.284;2022-07-21T05:02:42;18.55;;;7.65;;
36441;SDS011;22470;50.824;16.284;2022-07-21T05:05:10;18.67;;;8.13;;
36441;SDS011;22470;50.824;16.284;2022-07-21T05:07:37;17.08;;;8.52;;
36441;SDS011;22470;50.824;16.284;2022-07-21T05:10:06;20.00;;;8.23;;
36441;SDS011;22470;50.824;16.284;2022-07-21T05:12:35;17.27;;;7.57;;
36441;SDS011;22470;50.824;16.284;2022-07-21T05:15:03;16.55;;;7.47;;
36441;SDS011;22470;50.824;16.284;2022-07-21T05:17:32;22.52;;;8.18;;
36441;SDS011;22470;50.824;16.284;2022-07-21T05:20:00;19.65;;;7.45;;
36441;SDS011;22470;50.824;16.284;2022-07-21T05:22:27;15.80;;;7.68;;
36441;SDS011;22470;50.824;16.284;2022-07-21T05:24:54;16.70;;;6.72;;
36441;SDS011;22470;50.824;16.284;2022-07-21T05:27:22;17.38;;;6.80;;
36441;SDS011;22470;50.824;16.284;2022-07-21T05:29:49;18.65;;;7.10;;
36441;SDS011;22470;50.824;16.284;2022-07-21T05:32:16;18.70;;;7.32;;
36441;SDS011;22470;50.824;16.284;2022-07-21T05:34:43;14.35;;;7.05;;
36441;SDS011;22470;50.824;16.284;2022-07-21T05:37:10;19.75;;;7.43;;
36441;SDS011;22470;50.824;16.284;2022-07-21T05:39:37;16.95;;;6.63;;
36441;SDS011;22470;50.824;16.284;2022-07-21T05:42:05;19.02;;;6.93;;
36441;SDS011;22470;50.824;16.284;2022-07-21T05:44:32;15.93;;;7.63;;
36441;SDS011;22470;50.824;16.284;2022-07-21T05:46:59;15.77;;;7.43;;
36441;SDS011;22470;50.824;16.284;2022-07-21T05:49:27;25.88;;;7.78;;
36441;SDS011;22470;50.824;16.284;2022-07-21T05:51:54;16.58;;;7.57;;
36441;SDS011;22470;50.824;16.284;2022-07-21T05:54:22;15.98;;;7.43;;
36441;SDS011;22470;50.824;16.284;2022-07-21T05:56:49;16.05;;;7.03;;
36441;SDS011;22470;50.824;16.284;2022-07-21T05:59:16;17.10;;;6.68;;
36441;SDS011;22470;50.824;16.284;2022-07-21T06:01:44;19.77;;;7.10;;
36441;SDS011;22470;50.824;16.284;2022-07-21T06:04:11;20.40;;;8.25;;
36441;SDS011;22470;50.824;16.284;2022-07-21T06:06:39;24.05;;;8.88;;
36441;SDS011;22470;50.824;16.284;2022-07-21T06:09:07;23.17;;;8.60;;
36441;SDS011;22470;50.824;16.284;2022-07-21T06:11:34;23.90;;;8.60;;
36441;SDS011;22470;50.824;16.284;2022-07-21T06:14:03;18.05;;;8.00;;
36441;SDS011;22470;50.824;16.284;2022-07-21T06:16:30;19.40;;;8.48;;
36441;SDS011;22470;50.824;16.284;2022-07-21T06:18:58;17.95;;;7.13;;
36441;SDS011;22470;50.824;16.284;2022-07-21T06:21:25;16.88;;;6.80;;
36441;SDS011;22470;50.824;16.284;2022-07-21T06:23:52;15.35;;;6.57;;
36441;SDS011;22470;50.824;16.284;2022-07-21T06:26:21;19.35;;;6.60;;
36441;SDS011;22470;50.824;16.284;2022-07-21T06:28:48;15.82;;;7.22;;
36441;SDS011;22470;50.824;16.284;2022-07-21T06:31:15;14.35;;;6.63;;
36441;SDS011;22470;50.824;16.284;2022-07-21T06:33:42;17.20;;;6.60;;
36441;SDS011;22470;50.824;16.284;2022-07-21T06:36:10;17.25;;;6.63;;
36441;SDS011;22470;50.824;16.284;2022-07-21T06:38:37;15.77;;;5.97;;
36441;SDS011;22470;50.824;16.284;2022-07-21T06:41:04;15.15;;;6.07;;
36441;SDS011;22470;50.824;16.284;2022-07-21T06:43:32;15.15;;;6.30;;
36441;SDS011;22470;50.824;16.284;2022-07-21T06:46:00;14.75;;;5.47;;
36441;SDS011;22470;50.824;16.284;2022-07-21T06:48:27;13.35;;;5.70;;
36441;SDS011;22470;50.824;16.284;2022-07-21T06:50:55;13.43;;;5.78;;
36441;SDS011;22470;50.824;16.284;2022-07-21T06:53:23;20.10;;;6.80;;
36441;SDS011;22470;50.824;16.284;2022-07-21T06:55:51;12.68;;;6.10;;
36441;SDS011;22470;50.824;16.284;2022-07-21T06:58:25;17.60;;;6.10;;
36441;SDS011;22470;50.824;16.284;2022-07-21T07:00:53;16.17;;;5.70;;
36441;SDS011;22470;50.824;16.284;2022-07-21T07:03:23;11.00;;;4.70;;
36441;SDS011;22470;50.824;16.284;2022-07-21T07:05:50;10.32;;;4.15;;
36441;SDS011;22470;50.824;16.284;2022-07-21T07:08:18;8.10;;;4.28;;
36441;SDS011;22470;50.824;16.284;2022-07-21T07:10:46;10.02;;;4.10;;
36441;SDS011;22470;50.824;16.284;2022-07-21T07:13:13;11.13;;;4.13;;
36441;SDS011;22470;50.824;16.284;2022-07-21T07:16:00;9.73;;;4.00;;
36441;SDS011;22470;50.824;16.284;2022-07-21T07:18:27;8.68;;;4.07;;
36441;SDS011;22470;50.824;16.284;2022-07-21T07:20:55;10.82;;;4.35;;
36441;SDS011;22470;50.824;16.284;2022-07-21T07:23:22;11.70;;;4.55;;
36441;SDS011;22470;50.824;16.284;2022-07-21T07:25:49;8.57;;;4.07;;
36441;SDS011;22470;50.824;16.284;2022-07-21T07:28:16;10.35;;;4.10;;
36441;SDS011;22470;50.824;16.284;2022-07-21T07:30:44;8.77;;;4.13;;
36441;SDS011;22470;50.824;16.284;2022-07-21T07:33:11;9.27;;;3.90;;
36441;SDS011;22470;50.824;16.284;2022-07-21T07:35:38;8.48;;;3.38;;
36441;SDS011;22470;50.824;16.284;2022-07-21T07:38:05;8.45;;;3.28;;
36441;SDS011;22470;50.824;16.284;2022-07-21T07:40:32;5.97;;;3.28;;
36441;SDS011;22470;50.824;16.284;2022-07-21T07:43:00;7.40;;;3.20;;
36441;SDS011;22470;50.824;16.284;2022-07-21T07:45:34;9.23;;;4.10;;
36441;SDS011;22470;50.824;16.284;2022-07-21T07:48:02;10.85;;;3.97;;
36441;SDS011;22470;50.824;16.284;2022-07-21T07:50:30;10.23;;;4.32;;
36441;SDS011;22470;50.824;16.284;2022-07-21T07:52:57;10.68;;;4.32;;
36441;SDS011;22470;50.824;16.284;2022-07-21T07:55:24;14.75;;;5.53;;
36441;SDS011;22470;50.824;16.284;2022-07-21T07:57:51;10.98;;;4.78;;
36441;SDS011;22470;50.824;16.284;2022-07-21T08:00:19;11.80;;;5.30;;
36441;SDS011;22470;50.824;16.284;2022-07-21T08:03:06;12.48;;;5.82;;
36441;SDS011;22470;50.824;16.284;2022-07-21T08:05:34;12.85;;;5.70;;
36441;SDS011;22470;50.824;16.284;2022-07-21T08:08:01;9.93;;;3.97;;
36441;SDS011;22470;50.824;16.284;2022-07-21T08:10:28;7.13;;;3.75;;
36441;SDS011;22470;50.824;16.284;2022-07-21T08:13:13;7.88;;;3.00;;
36441;SDS011;22470;50.824;16.284;2022-07-21T08:15:44;6.63;;;2.70;;
36441;SDS011;22470;50.824;16.284;2022-07-21T08:18:13;6.57;;;2.95;;
36441;SDS011;22470;50.824;16.284;2022-07-21T08:20:41;8.20;;;3.22;;
36441;SDS011;22470;50.824;16.284;2022-07-21T08:23:09;6.78;;;3.30;;
36441;SDS011;22470;50.824;16.284;2022-07-21T08:25:38;6.72;;;2.95;;
36441;SDS011;22470;50.824;16.284;2022-07-21T08:28:06;5.78;;;2.88;;
36441;SDS011;22470;50.824;16.284;2022-07-21T08:30:34;9.93;;;2.90;;
36441;SDS011;22470;50.824;16.284;2022-07-21T08:33:02;5.70;;;3.08;;
36441;SDS011;22470;50.824;16.284;2022-07-21T08:35:30;7.70;;;3.10;;
36441;SDS011;22470;50.824;16.284;2022-07-21T08:37:58;7.38;;;3.00;;
36441;SDS011;22470;50.824;16.284;2022-07-21T08:40:29;8.30;;;3.28;;
36441;SDS011;22470;50.824;16.284;2022-07-21T08:42:59;5.82;;;3.10;;
36441;SDS011;22470;50.824;16.284;2022-07-21T08:45:26;5.63;;;3.47;;
36441;SDS011;22470;50.824;16.284;2022-07-21T08:47:55;11.90;;;3.42;;
36441;SDS011;22470;50.824;16.284;2022-07-21T08:50:33;4.57;;;2.65;;
36441;SDS011;22470;50.824;16.284;2022-07-21T08:53:03;5.85;;;3.00;;
36441;SDS011;22470;50.824;16.284;2022-07-21T08:55:31;6.93;;;2.70;;
36441;SDS011;22470;50.824;16.284;2022-07-21T08:58:00;5.97;;;2.85;;
36441;SDS011;22470;50.824;16.284;2022-07-21T09:00:34;7.75;;;2.63;;
36441;SDS011;22470;50.824;16.284;2022-07-21T09:03:09;6.68;;;2.92;;
36441;SDS011;22470;50.824;16.284;2022-07-21T09:05:41;7.75;;;3.08;;
36441;SDS011;22470;50.824;16.284;2022-07-21T09:08:09;9.38;;;3.10;;
36441;SDS011;22470;50.824;16.284;2022-07-21T09:10:37;10.63;;;3.13;;
36441;SDS011;22470;50.824;16.284;2022-07-21T09:13:08;7.97;;;3.10;;
36441;SDS011;22470;50.824;16.284;2022-07-21T09:15:35;10.32;;;3.30;;
36441;SDS011;22470;50.824;16.284;2022-07-21T09:18:07;6.70;;;2.80;;
36441;SDS011;22470;50.824;16.284;2022-07-21T09:20:39;9.77;;;3.00;;
36441;SDS011;22470;50.824;16.284;2022-07-21T09:23:15;8.57;;;2.88;;
36441;SDS011;22470;50.824;16.284;2022-07-21T09:25:48;8.07;;;3.25;;
36441;SDS011;22470;50.824;16.284;2022-07-21T09:30:59;5.70;;;2.72;;
36441;SDS011;22470;50.824;16.284;2022-07-21T09:33:41;9.20;;;2.97;;
36441;SDS011;22470;50.824;16.284;2022-07-21T09:36:14;7.13;;;2.97;;
36441;SDS011;22470;50.824;16.284;2022-07-21T09:38:50;6.93;;;3.13;;
36441;SDS011;22470;50.824;16.284;2022-07-21T09:41:21;6.47;;;2.92;;
36441;SDS011;22470;50.824;16.284;2022-07-21T09:43:52;7.78;;;3.10;;
36441;SDS011;22470;50.824;16.284;2022-07-21T09:46:25;9.43;;;2.88;;
36441;SDS011;22470;50.824;16.284;2022-07-21T09:48:55;11.02;;;3.20;;
36441;SDS011;22470;50.824;16.284;2022-07-21T09:51:44;9.18;;;3.25;;
36441;SDS011;22470;50.824;16.284;2022-07-21T09:54:12;7.88;;;2.47;;
36441;SDS011;22470;50.824;16.284;2022-07-21T09:56:41;7.50;;;2.63;;
36441;SDS011;22470;50.824;16.284;2022-07-21T09:59:10;8.73;;;3.17;;
36441;SDS011;22470;50.824;16.284;2022-07-21T10:01:38;15.63;;;3.75;;
36441;SDS011;22470;50.824;16.284;2022-07-21T10:04:06;40.83;;;4.95;;
36441;SDS011;22470;50.824;16.284;2022-07-21T10:06:35;10.23;;;2.90;;
36441;SDS011;22470;50.824;16.284;2022-07-21T10:09:06;7.30;;;3.42;;
36441;SDS011;22470;50.824;16.284;2022-07-21T10:11:39;7.15;;;3.38;;
36441;SDS011;22470;50.824;16.284;2022-07-21T10:14:09;6.85;;;3.28;;
36441;SDS011;22470;50.824;16.284;2022-07-21T10:16:37;9.88;;;3.53;;
36441;SDS011;22470;50.824;16.284;2022-07-21T10:19:26;9.30;;;3.50;;
36441;SDS011;22470;50.824;16.284;2022-07-21T10:24:27;7.40;;;3.63;;
36441;SDS011;22470;50.824;16.284;2022-07-21T10:26:59;5.82;;;2.83;;
36441;SDS011;22470;50.824;16.284;2022-07-21T10:29:48;7.10;;;3.30;;
36441;SDS011;22470;50.824;16.284;2022-07-21T10:32:31;8.82;;;3.72;;
36441;SDS011;22470;50.824;16.284;2022-07-21T10:35:02;9.50;;;3.83;;
36441;SDS011;22470;50.824;16.284;2022-07-21T10:37:49;7.22;;;3.67;;
36441;SDS011;22470;50.824;16.284;2022-07-21T10:45:40;6.60;;;3.08;;
36441;SDS011;22470;50.824;16.284;2022-07-21T10:48:46;7.80;;;3.70;;
36441;SDS011;22470;50.824;16.284;2022-07-21T10:51:09;6.70;;;3.15;;
36441;SDS011;22470;50.824;16.284;2022-07-21T10:53:38;10.38;;;4.22;;
36441;SDS011;22470;50.824;16.284;2022-07-21T10:56:06;6.55;;;3.15;;
36441;SDS011;22470;50.824;16.284;2022-07-21T11:01:06;8.10;;;3.72;;
36441;SDS011;22470;50.824;16.284;2022-07-21T11:04:09;7.75;;;4.28;;
36441;SDS011;22470;50.824;16.284;2022-07-21T11:06:40;11.88;;;6.35;;
36441;SDS011;22470;50.824;16.284;2022-07-21T11:11:39;8.82;;;3.72;;
36441;SDS011;22470;50.824;16.284;2022-07-21T11:14:34;8.05;;;3.30;;
36441;SDS011;22470;50.824;16.284;2022-07-21T11:17:12;8.82;;;3.55;;
36441;SDS011;22470;50.824;16.284;2022-07-21T11:19:52;9.00;;;3.95;;
36441;SDS011;22470;50.824;16.284;2022-07-21T11:22:20;7.03;;;3.50;;
36441;SDS011;22470;50.824;16.284;2022-07-21T11:24:51;13.65;;;3.38;;
36441;SDS011;22470;50.824;16.284;2022-07-21T11:27:29;10.05;;;3.95;;
36441;SDS011;22470;50.824;16.284;2022-07-21T11:29:59;7.05;;;3.67;;
36441;SDS011;22470;50.824;16.284;2022-07-21T11:32:28;10.23;;;3.55;;
36441;SDS011;22470;50.824;16.284;2022-07-21T11:34:59;5.47;;;3.47;;
36441;SDS011;22470;50.824;16.284;2022-07-21T11:40:09;8.25;;;4.35;;
36441;SDS011;22470;50.824;16.284;2022-07-21T11:42:38;18.85;;;6.63;;
36441;SDS011;22470;50.824;16.284;2022-07-21T11:45:06;6.50;;;3.38;;
36441;SDS011;22470;50.824;16.284;2022-07-21T11:47:34;10.88;;;4.32;;
36441;SDS011;22470;50.824;16.284;2022-07-21T11:50:03;9.30;;;3.63;;
36441;SDS011;22470;50.824;16.284;2022-07-21T11:52:33;17.73;;;5.00;;
36441;SDS011;22470;50.824;16.284;2022-07-21T11:55:02;7.85;;;4.13;;
36441;SDS011;22470;50.824;16.284;2022-07-21T11:57:30;5.88;;;3.13;;
36441;SDS011;22470;50.824;16.284;2022-07-21T11:59:58;12.52;;;4.28;;
36441;SDS011;22470;50.824;16.284;2022-07-21T12:02:27;10.95;;;4.00;;
36441;SDS011;22470;50.824;16.284;2022-07-21T12:04:57;8.27;;;3.45;;
36441;SDS011;22470;50.824;16.284;2022-07-21T12:09:56;8.80;;;3.72;;
36441;SDS011;22470;50.824;16.284;2022-07-21T12:12:38;7.05;;;4.03;;
36441;SDS011;22470;50.824;16.284;2022-07-21T12:17:44;7.20;;;3.80;;
36441;SDS011;22470;50.824;16.284;2022-07-21T12:23:00;10.40;;;4.85;;
36441;SDS011;22470;50.824;16.284;2022-07-21T12:25:46;7.53;;;3.70;;
36441;SDS011;22470;50.824;16.284;2022-07-21T12:28:40;9.30;;;3.85;;
36441;SDS011;22470;50.824;16.284;2022-07-21T12:31:10;10.70;;;5.60;;
36441;SDS011;22470;50.824;16.284;2022-07-21T12:33:39;9.95;;;4.40;;
36441;SDS011;22470;50.824;16.284;2022-07-21T12:36:27;11.77;;;4.47;;
36441;SDS011;22470;50.824;16.284;2022-07-21T12:38:55;11.00;;;4.30;;
36441;SDS011;22470;50.824;16.284;2022-07-21T12:41:22;11.07;;;4.20;;
36441;SDS011;22470;50.824;16.284;2022-07-21T12:43:59;9.10;;;4.38;;
36441;SDS011;22470;50.824;16.284;2022-07-21T12:46:34;8.73;;;4.13;;
36441;SDS011;22470;50.824;16.284;2022-07-21T12:49:10;11.15;;;4.78;;
36441;SDS011;22470;50.824;16.284;2022-07-21T12:51:39;8.65;;;4.55;;
36441;SDS011;22470;50.824;16.284;2022-07-21T12:54:06;8.55;;;3.72;;
36441;SDS011;22470;50.824;16.284;2022-07-21T12:56:34;9.35;;;4.80;;
36441;SDS011;22470;50.824;16.284;2022-07-21T12:59:03;11.30;;;4.10;;
36441;SDS011;22470;50.824;16.284;2022-07-21T13:01:31;8.90;;;4.30;;
36441;SDS011;22470;50.824;16.284;2022-07-21T13:04:00;8.60;;;4.22;;
36441;SDS011;22470;50.824;16.284;2022-07-21T13:06:29;8.18;;;4.00;;
36441;SDS011;22470;50.824;16.284;2022-07-21T13:08:56;7.47;;;3.90;;
36441;SDS011;22470;50.824;16.284;2022-07-21T13:11:26;9.20;;;3.80;;
36441;SDS011;22470;50.824;16.284;2022-07-21T13:13:53;7.15;;;4.10;;
36441;SDS011;22470;50.824;16.284;2022-07-21T13:16:20;7.30;;;3.35;;
36441;SDS011;22470;50.824;16.284;2022-07-21T13:18:50;6.78;;;3.53;;
36441;SDS011;22470;50.824;16.284;2022-07-21T13:21:19;6.53;;;3.88;;
36441;SDS011;22470;50.824;16.284;2022-07-21T13:23:46;7.72;;;4.32;;
36441;SDS011;22470;50.824;16.284;2022-07-21T13:26:13;10.02;;;3.92;;
36441;SDS011;22470;50.824;16.284;2022-07-21T13:28:40;6.60;;;3.70;;
36441;SDS011;22470;50.824;16.284;2022-07-21T13:31:07;7.35;;;3.70;;
36441;SDS011;22470;50.824;16.284;2022-07-21T13:33:37;11.00;;;5.28;;
36441;SDS011;22470;50.824;16.284;2022-07-21T13:36:05;11.27;;;6.50;;
36441;SDS011;22470;50.824;16.284;2022-07-21T13:38:34;8.77;;;3.80;;
36441;SDS011;22470;50.824;16.284;2022-07-21T13:41:02;9.10;;;4.28;;
36441;SDS011;22470;50.824;16.284;2022-07-21T13:43:49;13.40;;;4.75;;
36441;SDS011;22470;50.824;16.284;2022-07-21T13:46:17;10.20;;;3.58;;
36441;SDS011;22470;50.824;16.284;2022-07-21T13:48:45;10.50;;;4.75;;
36441;SDS011;22470;50.824;16.284;2022-07-21T13:51:13;9.95;;;4.75;;
36441;SDS011;22470;50.824;16.284;2022-07-21T13:53:41;8.00;;;4.10;;
36441;SDS011;22470;50.824;16.284;2022-07-21T13:56:10;9.90;;;4.35;;
36441;SDS011;22470;50.824;16.284;2022-07-21T13:58:38;11.23;;;4.05;;
36441;SDS011;22470;50.824;16.284;2022-07-21T14:01:06;11.15;;;4.10;;
36441;SDS011;22470;50.824;16.284;2022-07-21T14:03:35;8.88;;;4.00;;
36441;SDS011;22470;50.824;16.284;2022-07-21T14:06:03;9.80;;;4.18;;
36441;SDS011;22470;50.824;16.284;2022-07-21T14:08:31;10.68;;;4.55;;
36441;SDS011;22470;50.824;16.284;2022-07-21T14:10:58;10.63;;;3.83;;
36441;SDS011;22470;50.824;16.284;2022-07-21T14:13:25;8.25;;;4.03;;
36441;SDS011;22470;50.824;16.284;2022-07-21T14:15:52;10.68;;;4.68;;
36441;SDS011;22470;50.824;16.284;2022-07-21T14:18:19;9.38;;;4.55;;
36441;SDS011;22470;50.824;16.284;2022-07-21T14:20:47;10.95;;;6.38;;
36441;SDS011;22470;50.824;16.284;2022-07-21T14:23:14;7.88;;;4.30;;
36441;SDS011;22470;50.824;16.284;2022-07-21T14:25:41;11.93;;;6.18;;
36441;SDS011;22470;50.824;16.284;2022-07-21T14:28:09;10.23;;;4.72;;
36441;SDS011;22470;50.824;16.284;2022-07-21T14:30:36;9.27;;;4.55;;
36441;SDS011;22470;50.824;16.284;2022-07-21T14:33:03;12.30;;;5.13;;
36441;SDS011;22470;50.824;16.284;2022-07-21T14:35:31;12.38;;;5.57;;
36441;SDS011;22470;50.824;16.284;2022-07-21T14:37:58;9.85;;;5.00;;
36441;SDS011;22470;50.824;16.284;2022-07-21T14:40:25;12.48;;;6.47;;
36441;SDS011;22470;50.824;16.284;2022-07-21T14:42:53;11.02;;;5.53;;
36441;SDS011;22470;50.824;16.284;2022-07-21T14:45:20;7.50;;;3.97;;
36441;SDS011;22470;50.824;16.284;2022-07-21T14:47:50;10.88;;;4.43;;
36441;SDS011;22470;50.824;16.284;2022-07-21T14:50:18;14.75;;;6.00;;
36441;SDS011;22470;50.824;16.284;2022-07-21T14:52:53;9.30;;;4.53;;
36441;SDS011;22470;50.824;16.284;2022-07-21T14:55:22;14.38;;;4.80;;
36441;SDS011;22470;50.824;16.284;2022-07-21T14:57:49;10.40;;;5.30;;
36441;SDS011;22470;50.824;16.284;2022-07-21T15:00:17;10.18;;;4.55;;
36441;SDS011;22470;50.824;16.284;2022-07-21T15:02:45;10.73;;;4.78;;
36441;SDS011;22470;50.824;16.284;2022-07-21T15:05:13;9.38;;;4.40;;